sensor_id;sensor_type;location;lat;lon;timestamp;temperature;humidity
36424;DHT22;22458;45.328;9.514;2022-11-20T00:00:47;15.20;74.70
36424;DHT22;22458;45.328;9.514;2022-11-20T00:03:13;15.10;74.70
36424;DHT22;22458;45.328;9.514;2022-11-20T00:05:39;15.20;74.60
36424;DHT22;22458;45.328;9.514;2022-11-20T00:08:05;15.20;74.60
36424;DHT22;22458;45.328;9.514;2022-11-20T00:10:30;15.20;74.50
36424;DHT22;22458;45.328;9.514;2022-11-20T00:12:58;15.20;74.30
36424;DHT22;22458;45.328;9.514;2022-11-20T00:15:24;15.40;74.00
36424;DHT22;22458;45.328;9.514;2022-11-20T00:17:50;15.40;73.60
36424;DHT22;22458;45.328;9.514;2022-11-20T00:20:16;15.60;73.30
36424;DHT22;22458;45.328;9.514;2022-11-20T00:22:42;15.60;73.20
36424;DHT22;22458;45.328;9.514;2022-11-20T00:25:08;15.50;73.30
36424;DHT22;22458;45.328;9.514;2022-11-20T00:27:34;15.50;73.30
36424;DHT22;22458;45.328;9.514;2022-11-20T00:30:00;15.60;73.10
36424;DHT22;22458;45.328;9.514;2022-11-20T00:32:25;15.70;73.00
36424;DHT22;22458;45.328;9.514;2022-11-20T00:34:51;15.70;72.80
36424;DHT22;22458;45.328;9.514;2022-11-20T00:37:17;15.70;72.60
36424;DHT22;22458;45.328;9.514;2022-11-20T00:39:43;15.70;72.50
36424;DHT22;22458;45.328;9.514;2022-11-20T00:42:08;15.80;72.50
36424;DHT22;22458;45.328;9.514;2022-11-20T00:44:34;15.80;72.30
36424;DHT22;22458;45.328;9.514;2022-11-20T00:47:00;15.80;72.10
36424;DHT22;22458;45.328;9.514;2022-11-20T00:49:25;15.90;72.00
36424;DHT22;22458;45.328;9.514;2022-11-20T00:51:51;16.00;71.80
36424;DHT22;22458;45.328;9.514;2022-11-20T00:54:17;16.00;71.60
36424;DHT22;22458;45.328;9.514;2022-11-20T00:56:43;16.00;71.40
36424;DHT22;22458;45.328;9.514;2022-11-20T00:59:09;16.00;71.20
36424;DHT22;22458;45.328;9.514;2022-11-20T01:01:36;16.00;71.20
36424;DHT22;22458;45.328;9.514;2022-11-20T01:04:02;16.00;71.00
36424;DHT22;22458;45.328;9.514;2022-11-20T01:06:31;16.00;70.90
36424;DHT22;22458;45.328;9.514;2022-11-20T01:08:59;16.00;70.80
36424;DHT22;22458;45.328;9.514;2022-11-20T01:11:28;15.90;70.60
36424;DHT22;22458;45.328;9.514;2022-11-20T01:13:55;15.90;70.50
36424;DHT22;22458;45.328;9.514;2022-11-20T01:16:24;15.90;70.40
36424;DHT22;22458;45.328;9.514;2022-11-20T01:18:52;15.80;70.30
36424;DHT22;22458;45.328;9.514;2022-11-20T01:21:23;15.80;70.80
36424;DHT22;22458;45.328;9.514;2022-11-20T01:23:50;15.70;70.10
36424;DHT22;22458;45.328;9.514;2022-11-20T01:26:22;15.80;70.10
36424;DHT22;22458;45.328;9.514;2022-11-20T01:28:48;15.80;70.10
36424;DHT22;22458;45.328;9.514;2022-11-20T01:31:17;15.70;69.90
36424;DHT22;22458;45.328;9.514;2022-11-20T01:33:44;15.70;69.80
36424;DHT22;22458;45.328;9.514;2022-11-20T01:36:11;15.70;69.90
36424;DHT22;22458;45.328;9.514;2022-11-20T01:38:37;15.70;69.80
36424;DHT22;22458;45.328;9.514;2022-11-20T01:41:04;15.60;69.50
36424;DHT22;22458;45.328;9.514;2022-11-20T01:43:30;15.50;69.50
36424;DHT22;22458;45.328;9.514;2022-11-20T01:46:12;15.30;69.50
36424;DHT22;22458;45.328;9.514;2022-11-20T01:48:54;15.10;69.50
36424;DHT22;22458;45.328;9.514;2022-11-20T01:54:15;15.00;69.60
36424;DHT22;22458;45.328;9.514;2022-11-20T01:56:44;14.90;69.60
36424;DHT22;22458;45.328;9.514;2022-11-20T01:59:13;14.70;69.80
36424;DHT22;22458;45.328;9.514;2022-11-20T02:01:40;14.50;70.20
36424;DHT22;22458;45.328;9.514;2022-11-20T02:04:07;14.40;70.40
36424;DHT22;22458;45.328;9.514;2022-11-20T02:06:43;14.40;70.50
36424;DHT22;22458;45.328;9.514;2022-11-20T02:09:11;14.40;70.50
36424;DHT22;22458;45.328;9.514;2022-11-20T02:11:37;14.40;70.30
36424;DHT22;22458;45.328;9.514;2022-11-20T02:14:03;14.50;70.20
36424;DHT22;22458;45.328;9.514;2022-11-20T02:16:33;14.60;70.00
36424;DHT22;22458;45.328;9.514;2022-11-20T02:19:01;14.60;69.80
36424;DHT22;22458;45.328;9.514;2022-11-20T02:21:42;14.60;69.70
36424;DHT22;22458;45.328;9.514;2022-11-20T02:24:21;14.50;69.80
36424;DHT22;22458;45.328;9.514;2022-11-20T02:29:25;14.30;70.20
36424;DHT22;22458;45.328;9.514;2022-11-20T02:31:54;14.10;70.40
36424;DHT22;22458;45.328;9.514;2022-11-20T02:34:20;14.10;70.60
36424;DHT22;22458;45.328;9.514;2022-11-20T02:36:46;14.00;70.90
36424;DHT22;22458;45.328;9.514;2022-11-20T02:39:15;14.00;71.20
36424;DHT22;22458;45.328;9.514;2022-11-20T02:41:42;13.90;71.20
36424;DHT22;22458;45.328;9.514;2022-11-20T02:44:08;13.90;71.50
36424;DHT22;22458;45.328;9.514;2022-11-20T02:46:34;13.80;71.70
36424;DHT22;22458;45.328;9.514;2022-11-20T02:49:02;13.90;71.80
36424;DHT22;22458;45.328;9.514;2022-11-20T02:51:28;13.90;71.90
36424;DHT22;22458;45.328;9.514;2022-11-20T02:53:54;13.80;71.80
36424;DHT22;22458;45.328;9.514;2022-11-20T02:56:20;13.70;72.00
36424;DHT22;22458;45.328;9.514;2022-11-20T02:58:46;13.50;72.50
36424;DHT22;22458;45.328;9.514;2022-11-20T03:01:12;13.40;73.10
36424;DHT22;22458;45.328;9.514;2022-11-20T03:03:38;13.30;73.60
36424;DHT22;22458;45.328;9.514;2022-11-20T03:06:04;13.30;73.90
36424;DHT22;22458;45.328;9.514;2022-11-20T03:08:30;13.30;74.10
36424;DHT22;22458;45.328;9.514;2022-11-20T03:11:03;13.30;74.30
36424;DHT22;22458;45.328;9.514;2022-11-20T03:13:29;13.30;74.50
36424;DHT22;22458;45.328;9.514;2022-11-20T03:15:55;13.30;74.70
36424;DHT22;22458;45.328;9.514;2022-11-20T03:18:21;13.40;74.90
36424;DHT22;22458;45.328;9.514;2022-11-20T03:20:47;13.50;74.70
36424;DHT22;22458;45.328;9.514;2022-11-20T03:23:13;13.60;74.60
36424;DHT22;22458;45.328;9.514;2022-11-20T03:25:38;13.60;74.70
36424;DHT22;22458;45.328;9.514;2022-11-20T03:28:04;13.50;75.20
36424;DHT22;22458;45.328;9.514;2022-11-20T03:30:30;13.30;75.80
36424;DHT22;22458;45.328;9.514;2022-11-20T03:32:56;13.10;76.60
36424;DHT22;22458;45.328;9.514;2022-11-20T03:35:22;12.80;77.20
36424;DHT22;22458;45.328;9.514;2022-11-20T03:37:47;12.60;77.90
36424;DHT22;22458;45.328;9.514;2022-11-20T03:40:14;12.40;78.70
36424;DHT22;22458;45.328;9.514;2022-11-20T03:42:39;12.20;79.30
36424;DHT22;22458;45.328;9.514;2022-11-20T03:45:15;12.00;79.70
36424;DHT22;22458;45.328;9.514;2022-11-20T03:47:42;11.70;80.20
36424;DHT22;22458;45.328;9.514;2022-11-20T03:50:09;11.40;81.30
36424;DHT22;22458;45.328;9.514;2022-11-20T03:52:35;11.10;82.10
36424;DHT22;22458;45.328;9.514;2022-11-20T03:55:05;10.90;82.90
36424;DHT22;22458;45.328;9.514;2022-11-20T03:57:31;10.90;83.60
36424;DHT22;22458;45.328;9.514;2022-11-20T03:59:57;10.80;83.80
36424;DHT22;22458;45.328;9.514;2022-11-20T04:02:23;10.80;83.90
36424;DHT22;22458;45.328;9.514;2022-11-20T04:04:49;10.80;84.00
36424;DHT22;22458;45.328;9.514;2022-11-20T04:07:14;10.70;84.00
36424;DHT22;22458;45.328;9.514;2022-11-20T04:09:40;10.50;84.20
36424;DHT22;22458;45.328;9.514;2022-11-20T04:12:06;10.40;84.70
36424;DHT22;22458;45.328;9.514;2022-11-20T04:14:33;10.30;85.20
36424;DHT22;22458;45.328;9.514;2022-11-20T04:16:59;10.20;85.60
36424;DHT22;22458;45.328;9.514;2022-11-20T04:19:25;10.20;85.90
36424;DHT22;22458;45.328;9.514;2022-11-20T04:21:51;10.20;85.70
36424;DHT22;22458;45.328;9.514;2022-11-20T04:24:19;10.20;85.70
36424;DHT22;22458;45.328;9.514;2022-11-20T04:26:45;10.10;85.90
36424;DHT22;22458;45.328;9.514;2022-11-20T04:29:12;10.10;85.60
36424;DHT22;22458;45.328;9.514;2022-11-20T04:31:38;9.90;86.10
36424;DHT22;22458;45.328;9.514;2022-11-20T04:34:06;9.90;86.50
36424;DHT22;22458;45.328;9.514;2022-11-20T04:36:32;9.90;86.60
36424;DHT22;22458;45.328;9.514;2022-11-20T04:39:01;9.90;87.10
36424;DHT22;22458;45.328;9.514;2022-11-20T04:41:29;10.00;86.60
36424;DHT22;22458;45.328;9.514;2022-11-20T04:43:58;10.00;86.20
36424;DHT22;22458;45.328;9.514;2022-11-20T04:46:30;10.00;86.10
36424;DHT22;22458;45.328;9.514;2022-11-20T04:48:56;9.90;86.30
36424;DHT22;22458;45.328;9.514;2022-11-20T04:51:23;9.90;86.50
36424;DHT22;22458;45.328;9.514;2022-11-20T04:53:48;9.80;86.60
36424;DHT22;22458;45.328;9.514;2022-11-20T04:56:14;9.80;86.90
36424;DHT22;22458;45.328;9.514;2022-11-20T04:58:43;9.70;87.00
36424;DHT22;22458;45.328;9.514;2022-11-20T05:01:18;9.70;87.20
36424;DHT22;22458;45.328;9.514;2022-11-20T05:03:44;9.60;87.80
36424;DHT22;22458;45.328;9.514;2022-11-20T05:06:13;9.70;87.30
36424;DHT22;22458;45.328;9.514;2022-11-20T05:08:42;9.70;87.10
36424;DHT22;22458;45.328;9.514;2022-11-20T05:11:11;9.70;86.90
36424;DHT22;22458;45.328;9.514;2022-11-20T05:13:38;9.70;86.90
36424;DHT22;22458;45.328;9.514;2022-11-20T05:16:13;9.70;86.80
36424;DHT22;22458;45.328;9.514;2022-11-20T05:18:39;9.70;86.60
36424;DHT22;22458;45.328;9.514;2022-11-20T05:21:07;9.80;86.60
36424;DHT22;22458;45.328;9.514;2022-11-20T05:23:34;9.70;86.50
36424;DHT22;22458;45.328;9.514;2022-11-20T05:26:00;9.80;86.60
36424;DHT22;22458;45.328;9.514;2022-11-20T05:28:26;9.80;86.50
36424;DHT22;22458;45.328;9.514;2022-11-20T05:30:52;9.90;86.40
36424;DHT22;22458;45.328;9.514;2022-11-20T05:33:18;9.80;86.20
36424;DHT22;22458;45.328;9.514;2022-11-20T05:35:44;9.80;86.20
36424;DHT22;22458;45.328;9.514;2022-11-20T05:38:10;9.90;86.10
36424;DHT22;22458;45.328;9.514;2022-11-20T05:40:36;9.90;86.00
36424;DHT22;22458;45.328;9.514;2022-11-20T05:43:02;9.90;86.00
36424;DHT22;22458;45.328;9.514;2022-11-20T05:45:28;9.80;85.80
36424;DHT22;22458;45.328;9.514;2022-11-20T05:47:57;9.80;85.80
36424;DHT22;22458;45.328;9.514;2022-11-20T05:50:22;9.80;85.80
36424;DHT22;22458;45.328;9.514;2022-11-20T05:52:48;9.70;86.40
36424;DHT22;22458;45.328;9.514;2022-11-20T05:55:14;9.80;85.90
36424;DHT22;22458;45.328;9.514;2022-11-20T05:57:40;9.80;85.80
36424;DHT22;22458;45.328;9.514;2022-11-20T06:00:06;9.70;85.70
36424;DHT22;22458;45.328;9.514;2022-11-20T06:02:35;9.70;85.70
36424;DHT22;22458;45.328;9.514;2022-11-20T06:05:01;9.60;85.80
36424;DHT22;22458;45.328;9.514;2022-11-20T06:07:27;9.60;85.80
36424;DHT22;22458;45.328;9.514;2022-11-20T06:09:53;9.60;86.00
36424;DHT22;22458;45.328;9.514;2022-11-20T06:12:19;9.60;86.10
36424;DHT22;22458;45.328;9.514;2022-11-20T06:14:44;9.60;86.20
36424;DHT22;22458;45.328;9.514;2022-11-20T06:17:10;9.60;86.20
36424;DHT22;22458;45.328;9.514;2022-11-20T06:19:36;9.50;86.10
36424;DHT22;22458;45.328;9.514;2022-11-20T06:22:02;9.50;85.90
36424;DHT22;22458;45.328;9.514;2022-11-20T06:24:28;9.50;86.10
36424;DHT22;22458;45.328;9.514;2022-11-20T06:26:53;9.40;86.20
36424;DHT22;22458;45.328;9.514;2022-11-20T06:29:20;9.30;86.20
36424;DHT22;22458;45.328;9.514;2022-11-20T06:31:46;9.20;86.50
36424;DHT22;22458;45.328;9.514;2022-11-20T06:34:11;9.20;86.80
36424;DHT22;22458;45.328;9.514;2022-11-20T06:36:37;9.10;86.90
36424;DHT22;22458;45.328;9.514;2022-11-20T06:39:03;9.00;86.80
36424;DHT22;22458;45.328;9.514;2022-11-20T06:41:29;8.90;87.10
36424;DHT22;22458;45.328;9.514;2022-11-20T06:43:55;8.80;87.60
36424;DHT22;22458;45.328;9.514;2022-11-20T06:46:21;8.80;88.10
36424;DHT22;22458;45.328;9.514;2022-11-20T06:48:48;8.70;88.20
36424;DHT22;22458;45.328;9.514;2022-11-20T06:51:14;8.80;88.30
36424;DHT22;22458;45.328;9.514;2022-11-20T06:53:40;8.80;88.20
36424;DHT22;22458;45.328;9.514;2022-11-20T06:56:09;8.90;88.20
36424;DHT22;22458;45.328;9.514;2022-11-20T06:58:35;8.90;88.00
36424;DHT22;22458;45.328;9.514;2022-11-20T07:01:04;9.00;88.00
36424;DHT22;22458;45.328;9.514;2022-11-20T07:03:30;8.90;87.80
36424;DHT22;22458;45.328;9.514;2022-11-20T07:05:58;8.90;87.90
36424;DHT22;22458;45.328;9.514;2022-11-20T07:08:24;8.80;87.80
36424;DHT22;22458;45.328;9.514;2022-11-20T07:10:50;8.70;87.70
36424;DHT22;22458;45.328;9.514;2022-11-20T07:13:16;8.60;88.20
36424;DHT22;22458;45.328;9.514;2022-11-20T07:15:42;8.50;88.70
36424;DHT22;22458;45.328;9.514;2022-11-20T07:18:10;8.50;88.60
36424;DHT22;22458;45.328;9.514;2022-11-20T07:20:36;8.50;88.90
36424;DHT22;22458;45.328;9.514;2022-11-20T07:23:02;8.50;88.90
36424;DHT22;22458;45.328;9.514;2022-11-20T07:25:28;8.50;88.70
36424;DHT22;22458;45.328;9.514;2022-11-20T07:27:58;8.40;89.00
36424;DHT22;22458;45.328;9.514;2022-11-20T07:30:24;8.30;89.50
36424;DHT22;22458;45.328;9.514;2022-11-20T07:32:52;8.40;89.80
36424;DHT22;22458;45.328;9.514;2022-11-20T07:35:18;8.50;89.70
36424;DHT22;22458;45.328;9.514;2022-11-20T07:37:44;8.60;89.40
36424;DHT22;22458;45.328;9.514;2022-11-20T07:40:18;8.50;89.30
36424;DHT22;22458;45.328;9.514;2022-11-20T07:42:51;8.60;89.30
36424;DHT22;22458;45.328;9.514;2022-11-20T07:45:22;8.60;89.50
36424;DHT22;22458;45.328;9.514;2022-11-20T07:47:51;8.60;89.60
36424;DHT22;22458;45.328;9.514;2022-11-20T07:50:18;8.60;89.70
36424;DHT22;22458;45.328;9.514;2022-11-20T07:52:44;8.70;89.60
36424;DHT22;22458;45.328;9.514;2022-11-20T07:55:11;8.70;89.50
36424;DHT22;22458;45.328;9.514;2022-11-20T07:57:37;8.70;89.40
36424;DHT22;22458;45.328;9.514;2022-11-20T08:00:04;8.70;89.50
36424;DHT22;22458;45.328;9.514;2022-11-20T08:02:38;8.80;89.50
36424;DHT22;22458;45.328;9.514;2022-11-20T08:05:05;8.80;89.40
36424;DHT22;22458;45.328;9.514;2022-11-20T08:07:37;8.80;89.40
36424;DHT22;22458;45.328;9.514;2022-11-20T08:10:04;8.80;89.50
36424;DHT22;22458;45.328;9.514;2022-11-20T08:12:30;8.90;89.50
36424;DHT22;22458;45.328;9.514;2022-11-20T08:15:14;8.90;89.40
36424;DHT22;22458;45.328;9.514;2022-11-20T08:17:40;8.70;89.40
36424;DHT22;22458;45.328;9.514;2022-11-20T08:20:06;8.70;89.80
36424;DHT22;22458;45.328;9.514;2022-11-20T08:22:33;8.70;90.00
36424;DHT22;22458;45.328;9.514;2022-11-20T08:25:05;8.80;90.00
36424;DHT22;22458;45.328;9.514;2022-11-20T08:27:31;8.90;90.10
36424;DHT22;22458;45.328;9.514;2022-11-20T08:29:58;9.00;90.00
36424;DHT22;22458;45.328;9.514;2022-11-20T08:32:23;9.10;89.90
36424;DHT22;22458;45.328;9.514;2022-11-20T08:34:49;9.20;89.60
36424;DHT22;22458;45.328;9.514;2022-11-20T08:37:15;9.30;89.40
36424;DHT22;22458;45.328;9.514;2022-11-20T08:39:40;9.40;89.10
36424;DHT22;22458;45.328;9.514;2022-11-20T08:42:07;9.50;88.90
36424;DHT22;22458;45.328;9.514;2022-11-20T08:44:33;9.60;89.00
36424;DHT22;22458;45.328;9.514;2022-11-20T08:47:00;9.60;88.80
36424;DHT22;22458;45.328;9.514;2022-11-20T08:49:25;9.70;88.40
36424;DHT22;22458;45.328;9.514;2022-11-20T08:51:51;9.80;88.30
36424;DHT22;22458;45.328;9.514;2022-11-20T08:54:19;9.80;88.10
36424;DHT22;22458;45.328;9.514;2022-11-20T08:56:47;9.90;88.10
36424;DHT22;22458;45.328;9.514;2022-11-20T08:59:13;10.00;88.10
36424;DHT22;22458;45.328;9.514;2022-11-20T09:01:38;10.00;88.10
36424;DHT22;22458;45.328;9.514;2022-11-20T09:04:04;10.10;88.10
36424;DHT22;22458;45.328;9.514;2022-11-20T09:06:31;10.10;88.10
36424;DHT22;22458;45.328;9.514;2022-11-20T09:08:57;10.10;88.10
36424;DHT22;22458;45.328;9.514;2022-11-20T09:11:23;10.30;88.30
36424;DHT22;22458;45.328;9.514;2022-11-20T09:13:49;10.30;88.40
36424;DHT22;22458;45.328;9.514;2022-11-20T09:16:14;10.50;90.20
36424;DHT22;22458;45.328;9.514;2022-11-20T09:18:40;10.60;90.70
36424;DHT22;22458;45.328;9.514;2022-11-20T09:21:11;10.60;89.70
36424;DHT22;22458;45.328;9.514;2022-11-20T09:23:38;10.60;88.20
36424;DHT22;22458;45.328;9.514;2022-11-20T09:26:05;10.60;88.10
36424;DHT22;22458;45.328;9.514;2022-11-20T09:28:32;10.70;88.00
36424;DHT22;22458;45.328;9.514;2022-11-20T09:30:59;10.70;87.80
36424;DHT22;22458;45.328;9.514;2022-11-20T09:33:25;10.70;87.60
36424;DHT22;22458;45.328;9.514;2022-11-20T09:35:52;10.80;87.40
36424;DHT22;22458;45.328;9.514;2022-11-20T09:38:18;10.80;87.20
36424;DHT22;22458;45.328;9.514;2022-11-20T09:40:49;10.80;87.10
36424;DHT22;22458;45.328;9.514;2022-11-20T09:43:46;10.90;87.00
36424;DHT22;22458;45.328;9.514;2022-11-20T09:46:33;11.00;86.80
36424;DHT22;22458;45.328;9.514;2022-11-20T09:54:17;11.30;86.00
36424;DHT22;22458;45.328;9.514;2022-11-20T09:56:49;11.30;85.90
36424;DHT22;22458;45.328;9.514;2022-11-20T09:59:42;11.40;85.90
36424;DHT22;22458;45.328;9.514;2022-11-20T10:02:36;11.50;85.20
36424;DHT22;22458;45.328;9.514;2022-11-20T10:05:18;11.60;85.60
36424;DHT22;22458;45.328;9.514;2022-11-20T10:08:07;11.70;84.90
36424;DHT22;22458;45.328;9.514;2022-11-20T10:10:41;11.70;84.60
36424;DHT22;22458;45.328;9.514;2022-11-20T10:16:03;12.00;90.70
36424;DHT22;22458;45.328;9.514;2022-11-20T10:26:26;12.60;90.70
36424;DHT22;22458;45.328;9.514;2022-11-20T10:29:16;12.80;91.50
36424;DHT22;22458;45.328;9.514;2022-11-20T10:31:56;12.90;84.10
36424;DHT22;22458;45.328;9.514;2022-11-20T10:37:08;13.20;83.40
36424;DHT22;22458;45.328;9.514;2022-11-20T10:42:15;13.30;82.20
36424;DHT22;22458;45.328;9.514;2022-11-20T10:44:49;13.40;81.40
36424;DHT22;22458;45.328;9.514;2022-11-20T10:47:28;13.40;80.80
36424;DHT22;22458;45.328;9.514;2022-11-20T10:49:58;13.30;80.40
36424;DHT22;22458;45.328;9.514;2022-11-20T10:52:46;13.40;80.30
36424;DHT22;22458;45.328;9.514;2022-11-20T11:00:41;13.20;79.60
36424;DHT22;22458;45.328;9.514;2022-11-20T11:03:23;13.20;79.90
36424;DHT22;22458;45.328;9.514;2022-11-20T11:06:02;13.20;80.00
36424;DHT22;22458;45.328;9.514;2022-11-20T11:08:35;13.20;80.10
36424;DHT22;22458;45.328;9.514;2022-11-20T11:11:12;13.40;80.10
36424;DHT22;22458;45.328;9.514;2022-11-20T11:13:40;13.40;80.30
36424;DHT22;22458;45.328;9.514;2022-11-20T11:16:20;13.40;79.70
36424;DHT22;22458;45.328;9.514;2022-11-20T11:18:47;13.40;79.30
36424;DHT22;22458;45.328;9.514;2022-11-20T11:21:13;13.40;79.20
36424;DHT22;22458;45.328;9.514;2022-11-20T11:23:46;13.50;79.00
36424;DHT22;22458;45.328;9.514;2022-11-20T11:26:20;13.50;78.80
36424;DHT22;22458;45.328;9.514;2022-11-20T11:28:57;13.50;78.30
36424;DHT22;22458;45.328;9.514;2022-11-20T11:31:24;13.50;78.30
36424;DHT22;22458;45.328;9.514;2022-11-20T11:33:50;13.50;78.40
36424;DHT22;22458;45.328;9.514;2022-11-20T11:36:19;13.60;78.30
36424;DHT22;22458;45.328;9.514;2022-11-20T11:38:51;13.60;78.10
36424;DHT22;22458;45.328;9.514;2022-11-20T11:41:23;13.60;78.00
36424;DHT22;22458;45.328;9.514;2022-11-20T11:43:52;13.70;78.00
36424;DHT22;22458;45.328;9.514;2022-11-20T11:46:39;13.80;77.80
36424;DHT22;22458;45.328;9.514;2022-11-20T11:52:13;13.80;77.50
36424;DHT22;22458;45.328;9.514;2022-11-20T11:54:58;13.90;77.30
36424;DHT22;22458;45.328;9.514;2022-11-20T11:57:47;13.90;77.20
36424;DHT22;22458;45.328;9.514;2022-11-20T12:00:19;13.90;77.40
36424;DHT22;22458;45.328;9.514;2022-11-20T12:10:19;14.00;77.50
36424;DHT22;22458;45.328;9.514;2022-11-20T12:12:49;14.10;77.60
36424;DHT22;22458;45.328;9.514;2022-11-20T12:15:29;14.20;77.50
36424;DHT22;22458;45.328;9.514;2022-11-20T12:17:55;14.30;77.40
36424;DHT22;22458;45.328;9.514;2022-11-20T12:20:24;14.30;77.50
36424;DHT22;22458;45.328;9.514;2022-11-20T12:23:13;14.30;77.40
36424;DHT22;22458;45.328;9.514;2022-11-20T12:25:46;14.50;77.30
36424;DHT22;22458;45.328;9.514;2022-11-20T12:31:42;14.60;77.00
36424;DHT22;22458;45.328;9.514;2022-11-20T12:36:57;14.70;76.80
36424;DHT22;22458;45.328;9.514;2022-11-20T12:39:34;14.80;76.50
36424;DHT22;22458;45.328;9.514;2022-11-20T12:53:07;15.00;76.10
36424;DHT22;22458;45.328;9.514;2022-11-20T12:55:38;15.00;75.90
36424;DHT22;22458;45.328;9.514;2022-11-20T13:04:55;15.20;75.70
36424;DHT22;22458;45.328;9.514;2022-11-20T13:06:52;15.20;75.50
36424;DHT22;22458;45.328;9.514;2022-11-20T13:09:20;15.30;75.20
36424;DHT22;22458;45.328;9.514;2022-11-20T13:14:50;15.40;74.90
36424;DHT22;22458;45.328;9.514;2022-11-20T13:19:55;15.50;75.20
36424;DHT22;22458;45.328;9.514;2022-11-20T13:22:52;15.60;74.30
36424;DHT22;22458;45.328;9.514;2022-11-20T13:25:31;15.70;74.00
36424;DHT22;22458;45.328;9.514;2022-11-20T13:28:00;15.60;73.70
36424;DHT22;22458;45.328;9.514;2022-11-20T13:30:28;15.60;73.80
36424;DHT22;22458;45.328;9.514;2022-11-20T13:33:01;15.70;73.70
36424;DHT22;22458;45.328;9.514;2022-11-20T13:35:37;15.60;73.60
36424;DHT22;22458;45.328;9.514;2022-11-20T13:38:15;15.70;73.50
36424;DHT22;22458;45.328;9.514;2022-11-20T13:46:00;15.70;73.40
36424;DHT22;22458;45.328;9.514;2022-11-20T13:48:30;15.80;73.30
36424;DHT22;22458;45.328;9.514;2022-11-20T13:51:24;15.90;73.20
36424;DHT22;22458;45.328;9.514;2022-11-20T13:54:37;16.00;72.80
36424;DHT22;22458;45.328;9.514;2022-11-20T14:00:07;16.00;72.50
36424;DHT22;22458;45.328;9.514;2022-11-20T14:02:40;16.10;72.20
36424;DHT22;22458;45.328;9.514;2022-11-20T14:05:21;16.10;71.80
36424;DHT22;22458;45.328;9.514;2022-11-20T14:07:47;16.10;71.60
36424;DHT22;22458;45.328;9.514;2022-11-20T14:10:26;16.20;71.80
36424;DHT22;22458;45.328;9.514;2022-11-20T14:12:53;16.20;71.50
36424;DHT22;22458;45.328;9.514;2022-11-20T14:17:53;16.30;70.90
36424;DHT22;22458;45.328;9.514;2022-11-20T14:20:19;16.20;70.80
36424;DHT22;22458;45.328;9.514;2022-11-20T14:22:49;16.20;70.60
36424;DHT22;22458;45.328;9.514;2022-11-20T14:27:44;16.10;70.70
36424;DHT22;22458;45.328;9.514;2022-11-20T14:30:17;16.10;70.80
36424;DHT22;22458;45.328;9.514;2022-11-20T14:32:45;16.10;70.60
36424;DHT22;22458;45.328;9.514;2022-11-20T14:35:20;16.10;70.50
36424;DHT22;22458;45.328;9.514;2022-11-20T14:37:47;16.10;70.20
36424;DHT22;22458;45.328;9.514;2022-11-20T14:40:31;16.00;70.20
36424;DHT22;22458;45.328;9.514;2022-11-20T14:42:59;15.90;70.00
36424;DHT22;22458;45.328;9.514;2022-11-20T14:45:26;15.90;70.10
36424;DHT22;22458;45.328;9.514;2022-11-20T14:47:55;15.90;70.00
36424;DHT22;22458;45.328;9.514;2022-11-20T14:50:26;15.80;70.00
36424;DHT22;22458;45.328;9.514;2022-11-20T14:53:00;15.90;70.10
36424;DHT22;22458;45.328;9.514;2022-11-20T14:55:32;15.80;69.90
36424;DHT22;22458;45.328;9.514;2022-11-20T14:58:22;15.90;69.80
36424;DHT22;22458;45.328;9.514;2022-11-20T15:01:05;15.90;69.50
36424;DHT22;22458;45.328;9.514;2022-11-20T15:03:33;15.80;69.50
36424;DHT22;22458;45.328;9.514;2022-11-20T15:05:59;15.80;69.50
36424;DHT22;22458;45.328;9.514;2022-11-20T15:08:25;15.80;69.40
36424;DHT22;22458;45.328;9.514;2022-11-20T15:10:51;15.80;69.30
36424;DHT22;22458;45.328;9.514;2022-11-20T15:13:34;15.80;69.40
36424;DHT22;22458;45.328;9.514;2022-11-20T15:16:02;15.80;69.50
36424;DHT22;22458;45.328;9.514;2022-11-20T15:18:40;15.80;69.60
36424;DHT22;22458;45.328;9.514;2022-11-20T15:21:17;15.80;69.50
36424;DHT22;22458;45.328;9.514;2022-11-20T15:23:43;15.80;69.60
36424;DHT22;22458;45.328;9.514;2022-11-20T15:26:11;15.70;69.60
36424;DHT22;22458;45.328;9.514;2022-11-20T15:28:44;15.70;69.70
36424;DHT22;22458;45.328;9.514;2022-11-20T15:31:14;15.70;69.70
36424;DHT22;22458;45.328;9.514;2022-11-20T15:33:40;15.60;69.90
36424;DHT22;22458;45.328;9.514;2022-11-20T15:36:06;15.60;70.20
36424;DHT22;22458;45.328;9.514;2022-11-20T15:38:32;15.60;70.40
36424;DHT22;22458;45.328;9.514;2022-11-20T15:40:58;15.60;70.50
36424;DHT22;22458;45.328;9.514;2022-11-20T15:43:23;15.60;70.60
36424;DHT22;22458;45.328;9.514;2022-11-20T15:45:51;15.60;70.70
36424;DHT22;22458;45.328;9.514;2022-11-20T15:48:21;15.60;70.80
36424;DHT22;22458;45.328;9.514;2022-11-20T15:53:41;15.50;70.90
36424;DHT22;22458;45.328;9.514;2022-11-20T15:56:13;15.40;71.10
36424;DHT22;22458;45.328;9.514;2022-11-20T15:58:40;15.40;71.10
36424;DHT22;22458;45.328;9.514;2022-11-20T16:01:13;15.40;71.30
36424;DHT22;22458;45.328;9.514;2022-11-20T16:03:39;15.30;71.40
36424;DHT22;22458;45.328;9.514;2022-11-20T16:06:05;15.20;71.50
36424;DHT22;22458;45.328;9.514;2022-11-20T16:08:31;15.20;71.70
36424;DHT22;22458;45.328;9.514;2022-11-20T16:10:57;15.20;71.80
36424;DHT22;22458;45.328;9.514;2022-11-20T16:13:23;15.10;71.80
36424;DHT22;22458;45.328;9.514;2022-11-20T16:16:13;15.10;71.90
36424;DHT22;22458;45.328;9.514;2022-11-20T16:18:42;15.00;71.90
36424;DHT22;22458;45.328;9.514;2022-11-20T16:21:10;14.90;72.00
36424;DHT22;22458;45.328;9.514;2022-11-20T16:23:36;14.80;72.10
36424;DHT22;22458;45.328;9.514;2022-11-20T16:26:09;14.80;72.20
36424;DHT22;22458;45.328;9.514;2022-11-20T16:28:35;14.80;72.30
36424;DHT22;22458;45.328;9.514;2022-11-20T16:31:11;14.70;72.40
36424;DHT22;22458;45.328;9.514;2022-11-20T16:33:38;14.70;72.60
36424;DHT22;22458;45.328;9.514;2022-11-20T16:36:13;14.60;72.60
36424;DHT22;22458;45.328;9.514;2022-11-20T16:38:39;14.50;72.70
36424;DHT22;22458;45.328;9.514;2022-11-20T16:41:05;14.50;72.80
36424;DHT22;22458;45.328;9.514;2022-11-20T16:43:31;14.40;72.90
36424;DHT22;22458;45.328;9.514;2022-11-20T16:45:57;14.30;73.10
36424;DHT22;22458;45.328;9.514;2022-11-20T16:48:23;14.20;73.80
36424;DHT22;22458;45.328;9.514;2022-11-20T16:50:51;14.20;73.40
36424;DHT22;22458;45.328;9.514;2022-11-20T16:53:19;14.10;73.50
36424;DHT22;22458;45.328;9.514;2022-11-20T16:55:45;14.10;73.60
36424;DHT22;22458;45.328;9.514;2022-11-20T16:58:11;14.00;73.60
36424;DHT22;22458;45.328;9.514;2022-11-20T17:00:38;14.00;73.70
36424;DHT22;22458;45.328;9.514;2022-11-20T17:03:05;13.90;73.80
36424;DHT22;22458;45.328;9.514;2022-11-20T17:05:34;13.90;73.90
36424;DHT22;22458;45.328;9.514;2022-11-20T17:08:00;13.90;74.00
36424;DHT22;22458;45.328;9.514;2022-11-20T17:10:26;13.80;74.00
36424;DHT22;22458;45.328;9.514;2022-11-20T17:12:52;13.70;74.10
36424;DHT22;22458;45.328;9.514;2022-11-20T17:15:18;13.70;74.20